Time;durP1;ratioP1;P1;durP2;ratioP2;P2;SDS_P1;SDS_P2;PMS_P1;PMS_P2;Temp;Humidity;BMP_temperature;BMP_pressure;BME280_temperature;BME280_humidity;BME280_pressure;Samples;Min_cycle;Max_cycle;Signal;HPM_P1;HPM_P2
2023/03/11 00:00:15;;;;;;;2.13;0.50;;;1.10;99.90;;;;;;6243687;23;20043;-83
2023/03/11 00:02:43;;;;;;;1.15;0.50;;;1.20;99.90;;;;;;6244434;23;20020;-85
2023/03/11 00:05:19;;;;;;;5.55;0.47;;;1.10;99.90;;;;;;6243690;23;20016;-86
2023/03/11 00:07:45;;;;;;;5.68;0.52;;;1.20;99.90;;;;;;6244046;23;20023;-83
2023/03/11 00:10:16;;;;;;;1.08;0.40;;;1.10;99.90;;;;;;6245103;22;20016;-85
2023/03/11 00:12:42;;;;;;;1.50;0.30;;;1.10;99.90;;;;;;6245540;22;20016;-85
2023/03/11 00:15:08;;;;;;;3.03;0.43;;;1.90;99.90;;;;;;6245840;22;20070;-85
2023/03/11 00:17:34;;;;;;;3.88;0.40;;;1.20;99.90;;;;;;6245495;22;20024;-86
2023/03/11 00:19:59;;;;;;;1.67;0.40;;;1.20;99.90;;;;;;6243881;23;20020;-86
2023/03/11 00:22:25;;;;;;;3.70;0.40;;;1.20;99.90;;;;;;6243609;23;20024;-86
2023/03/11 00:24:51;;;;;;;4.70;0.40;;;1.20;99.90;;;;;;6245834;23;20050;-86
2023/03/11 00:27:16;;;;;;;3.42;0.50;;;1.10;99.90;;;;;;6243769;23;20017;-84
2023/03/11 00:29:42;;;;;;;2.33;0.50;;;2.20;99.90;;;;;;6244161;23;20016;-86
2023/03/11 00:32:08;;;;;;;4.00;0.40;;;1.10;99.90;;;;;;6245224;23;20171;-84
2023/03/11 00:34:33;;;;;;;2.47;0.30;;;1.10;99.90;;;;;;6243540;23;20020;-84
2023/03/11 00:36:59;;;;;;;2.75;0.50;;;1.60;99.90;;;;;;6245817;23;20012;-84
2023/03/11 00:39:25;;;;;;;1.30;0.47;;;1.10;99.90;;;;;;6245121;23;20047;-83
2023/03/11 00:41:51;;;;;;;1.77;0.40;;;1.40;99.90;;;;;;6243853;23;20022;-86
2023/03/11 00:44:17;;;;;;;1.90;0.30;;;1.00;99.90;;;;;;6245539;22;20103;-86
2023/03/11 00:46:42;;;;;;;3.33;0.40;;;1.00;99.90;;;;;;6245876;23;20040;-85
2023/03/11 00:49:08;;;;;;;5.32;0.30;;;1.10;99.90;;;;;;6245492;23;20016;-84
2023/03/11 00:51:34;;;;;;;3.05;0.30;;;2.30;99.90;;;;;;6245634;23;20016;-85
2023/03/11 00:54:00;;;;;;;1.65;0.20;;;1.10;99.90;;;;;;6244116;23;20012;-85
2023/03/11 00:56:25;;;;;;;3.58;0.40;;;2.30;99.90;;;;;;6247193;22;20442;-84
2023/03/11 00:58:51;;;;;;;7.78;0.43;;;1.60;99.90;;;;;;6247838;23;20050;-85
2023/03/11 01:01:18;;;;;;;2.20;0.40;;;1.20;99.90;;;;;;6247517;23;20062;-84
2023/03/11 01:03:45;;;;;;;0.75;0.38;;;1.20;99.90;;;;;;6247532;22;20094;-85
2023/03/11 01:06:11;;;;;;;2.60;0.50;;;2.10;99.90;;;;;;6247485;22;20044;-84
2023/03/11 01:08:37;;;;;;;2.58;1.40;;;1.10;99.90;;;;;;6247378;22;20398;-85
2023/03/11 01:11:03;;;;;;;5.35;0.30;;;1.20;99.90;;;;;;6245830;23;20012;-85
2023/03/11 01:13:30;;;;;;;2.47;0.40;;;1.20;99.90;;;;;;6245439;23;20012;-83
2023/03/11 01:15:56;;;;;;;0.60;0.22;;;1.10;99.90;;;;;;6245597;23;20047;-85
2023/03/11 01:18:22;;;;;;;3.80;0.30;;;1.60;99.90;;;;;;6247670;22;20331;-84
2023/03/11 01:20:48;;;;;;;2.53;0.40;;;2.10;99.90;;;;;;6245378;23;20043;-82
2023/03/11 01:23:15;;;;;;;2.85;0.32;;;1.90;99.90;;;;;;6245610;23;20070;-85
2023/03/11 01:25:41;;;;;;;2.38;0.57;;;1.60;99.90;;;;;;6247458;22;20008;-85
2023/03/11 01:28:07;;;;;;;4.80;0.35;;;1.00;99.90;;;;;;6247104;22;20020;-85
2023/03/11 01:30:36;;;;;;;2.00;0.47;;;2.60;99.90;;;;;;6247003;22;20347;-85
2023/03/11 01:33:02;;;;;;;2.92;0.30;;;2.20;99.90;;;;;;6245532;23;20035;-85
2023/03/11 01:35:30;;;;;;;2.40;0.40;;;1.20;99.90;;;;;;6247725;22;20016;-84
2023/03/11 01:37:56;;;;;;;0.93;0.50;;;1.20;99.90;;;;;;6247121;22;20350;-85
2023/03/11 01:40:41;;;;;;;2.95;0.40;;;1.70;99.90;;;;;;6245469;23;20055;-85
2023/03/11 01:43:44;;;;;;;1.38;0.30;;;1.20;99.90;;;;;;6247255;22;20020;-84
2023/03/11 01:46:10;;;;;;;1.35;0.40;;;1.10;99.90;;;;;;6246671;22;20016;-85
2023/03/11 01:48:37;;;;;;;2.92;0.40;;;1.00;99.90;;;;;;6247317;23;20016;-85
2023/03/11 01:51:04;;;;;;;2.83;0.20;;;1.00;99.90;;;;;;6246669;22;20012;-84
2023/03/11 01:53:31;;;;;;;1.65;0.30;;;1.70;99.90;;;;;;6247214;22;20034;-85
2023/03/11 01:55:57;;;;;;;0.60;0.28;;;0.80;99.90;;;;;;6246874;22;20325;-84
2023/03/11 01:58:25;;;;;;;2.38;0.30;;;0.80;99.90;;;;;;6246912;23;20035;-85
2023/03/11 02:00:52;;;;;;;5.00;0.35;;;0.80;99.90;;;;;;6245068;23;20012;-84
2023/03/11 02:03:48;;;;;;;1.15;0.30;;;0.80;99.90;;;;;;6247139;22;20087;-85
2023/03/11 02:06:18;;;;;;;2.65;0.30;;;0.90;99.90;;;;;;6243580;23;20082;-85
2023/03/11 02:08:44;;;;;;;0.47;0.30;;;0.90;99.90;;;;;;6246441;22;20057;-85
2023/03/11 02:11:26;;;;;;;0.77;0.30;;;0.60;99.90;;;;;;6246572;22;20048;-83
2023/03/11 02:13:57;;;;;;;1.27;0.70;;;1.90;99.90;;;;;;6246878;22;20047;-85
2023/03/11 02:16:23;;;;;;;2.92;0.35;;;1.30;99.90;;;;;;6247066;22;20016;-83
2023/03/11 02:18:48;;;;;;;1.08;0.32;;;1.30;99.90;;;;;;6244921;23;20031;-85
2023/03/11 02:21:25;;;;;;;2.00;0.38;;;1.90;99.90;;;;;;6246796;22;20027;-85
2023/03/11 02:24:09;;;;;;;1.83;0.20;;;0.90;99.90;;;;;;6244632;23;20012;-85
2023/03/11 02:27:00;;;;;;;1.30;0.30;;;0.90;99.90;;;;;;6246323;23;20458;-85
2023/03/11 02:29:27;;;;;;;1.52;0.30;;;0.80;99.90;;;;;;6246816;22;20018;-85
2023/03/11 02:31:55;;;;;;;1.35;0.30;;;1.40;99.90;;;;;;6244344;23;20070;-86
2023/03/11 02:34:26;;;;;;;1.13;0.40;;;0.80;99.90;;;;;;6246889;22;20342;-86
2023/03/11 02:36:52;;;;;;;3.28;1.15;;;1.10;99.90;;;;;;6244773;23;20023;-83
2023/03/11 02:39:48;;;;;;;0.45;0.28;;;0.70;99.90;;;;;;6246232;23;20020;-85
2023/03/11 02:42:17;;;;;;;4.18;0.70;;;0.80;99.90;;;;;;6158231;23;20025;-86
2023/03/11 02:44:46;;;;;;;3.00;0.32;;;0.70;99.90;;;;;;6183431;23;20507;-85
2023/03/11 02:47:12;;;;;;;3.30;0.30;;;1.50;99.90;;;;;;6183226;23;20025;-86
2023/03/11 02:49:38;;;;;;;2.42;0.20;;;0.70;99.90;;;;;;6183745;23;20084;-86
2023/03/11 02:52:04;;;;;;;0.65;0.20;;;1.30;99.90;;;;;;6183242;23;20531;-86
2023/03/11 02:54:29;;;;;;;0.63;0.30;;;0.70;99.90;;;;;;6183180;23;20088;-84
2023/03/11 02:56:55;;;;;;;3.85;0.40;;;0.60;99.90;;;;;;6183685;23;20028;-86
2023/03/11 02:59:21;;;;;;;1.83;0.30;;;1.20;99.90;;;;;;6183182;23;20025;-86
2023/03/11 03:01:46;;;;;;;1.95;0.28;;;0.40;99.90;;;;;;6183175;23;20067;-85
2023/03/11 03:04:12;;;;;;;0.50;0.20;;;0.40;99.90;;;;;;6158385;23;20013;-85
2023/03/11 03:06:38;;;;;;;3.28;0.35;;;1.10;99.90;;;;;;6183212;23;20020;-85
2023/03/11 03:09:03;;;;;;;0.43;0.20;;;0.30;99.90;;;;;;6157963;23;20052;-83
2023/03/11 03:11:29;;;;;;;1.80;0.30;;;0.40;99.90;;;;;;6183373;23;20028;-86
2023/03/11 03:13:55;;;;;;;2.40;0.30;;;1.70;99.90;;;;;;6183383;23;20021;-84
2023/03/11 03:16:20;;;;;;;3.60;0.75;;;0.50;99.90;;;;;;6182306;23;20017;-85
2023/03/11 03:18:46;;;;;;;1.88;0.30;;;1.20;99.90;;;;;;6206490;23;20434;-85
2023/03/11 03:21:12;;;;;;;1.65;0.40;;;1.00;99.90;;;;;;6246369;23;20423;-83
2023/03/11 03:23:37;;;;;;;0.82;0.30;;;-0.10;99.90;;;;;;6244283;23;20020;-85
2023/03/11 03:26:06;;;;;;;1.33;0.20;;;0.30;99.90;;;;;;6246057;23;20091;-84
2023/03/11 03:28:32;;;;;;;0.75;0.20;;;0.30;99.90;;;;;;6246454;23;20008;-84
2023/03/11 03:31:06;;;;;;;1.13;0.30;;;0.20;99.90;;;;;;6246141;23;20375;-84
2023/03/11 03:33:32;;;;;;;3.50;0.30;;;1.10;99.90;;;;;;6246198;22;20043;-85
2023/03/11 03:35:57;;;;;;;1.83;0.30;;;0.10;99.90;;;;;;6245953;23;20016;-84
2023/03/11 03:38:23;;;;;;;1.13;0.25;;;0.20;99.90;;;;;;6218686;23;20016;-85
2023/03/11 03:40:49;;;;;;;2.35;0.30;;;0.10;99.90;;;;;;6246235;23;20014;-85
2023/03/11 03:43:14;;;;;;;1.33;0.30;;;0.10;99.90;;;;;;6245545;23;20450;-83
2023/03/11 03:45:40;;;;;;;0.55;0.20;;;0.50;99.90;;;;;;6246064;23;20454;-85
2023/03/11 03:48:06;;;;;;;0.30;0.30;;;0.00;99.90;;;;;;6244218;23;20020;-85
2023/03/11 03:50:32;;;;;;;1.10;0.40;;;1.00;99.90;;;;;;6245426;23;20047;-85
2023/03/11 03:52:57;;;;;;;0.68;0.22;;;0.00;99.90;;;;;;6245590;23;20327;-84
2023/03/11 03:55:23;;;;;;;1.55;0.55;;;-0.10;99.90;;;;;;6244053;23;20028;-85
2023/03/11 03:57:49;;;;;;;2.13;0.30;;;0.00;99.90;;;;;;6244169;23;20023;-85
2023/03/11 04:00:15;;;;;;;0.80;0.35;;;-0.10;99.90;;;;;;6245732;23;20016;-85
2023/03/11 04:02:41;;;;;;;5.50;0.40;;;0.00;99.90;;;;;;6245523;23;20012;-84
2023/03/11 04:05:07;;;;;;;1.95;0.85;;;-0.10;99.90;;;;;;6245875;23;20020;-85
2023/03/11 04:07:34;;;;;;;2.47;0.55;;;0.00;99.90;;;;;;6243924;23;20026;-85
2023/03/11 04:10:00;;;;;;;0.85;0.20;;;0.00;99.90;;;;;;6245868;22;20454;-84
2023/03/11 04:12:26;;;;;;;1.75;0.30;;;0.00;99.90;;;;;;6245532;23;20048;-84
2023/03/11 04:14:52;;;;;;;2.63;0.35;;;0.00;99.90;;;;;;6244163;23;20027;-84
2023/03/11 04:17:18;;;;;;;4.43;0.30;;;1.20;99.90;;;;;;6245853;23;20016;-83
2023/03/11 04:19:43;;;;;;;3.40;0.30;;;-0.10;99.90;;;;;;6245862;23;20098;-85
2023/03/11 04:22:10;;;;;;;2.05;0.30;;;-0.10;99.90;;;;;;6245729;23;22279;-84
2023/03/11 04:24:36;;;;;;;3.92;0.30;;;0.30;99.90;;;;;;6245484;22;20065;-85
2023/03/11 04:27:01;;;;;;;1.80;0.35;;;0.00;99.90;;;;;;6244479;23;20451;-84
2023/03/11 04:29:27;;;;;;;1.17;0.30;;;-0.10;99.90;;;;;;6243583;23;20020;-84
2023/03/11 04:31:53;;;;;;;0.82;0.30;;;0.90;99.90;;;;;;6243554;23;20012;-85
2023/03/11 04:34:19;;;;;;;0.50;0.30;;;-0.40;99.90;;;;;;6246187;22;20020;-83
2023/03/11 04:36:44;;;;;;;1.48;0.45;;;0.30;99.90;;;;;;6243703;23;20016;-84
2023/03/11 04:39:10;;;;;;;0.32;0.25;;;-0.50;99.90;;;;;;6243668;23;20062;-85
2023/03/11 04:41:36;;;;;;;0.52;0.20;;;0.30;99.90;;;;;;6245619;22;20066;-83
2023/03/11 04:44:02;;;;;;;0.43;0.22;;;-0.50;99.90;;;;;;6245695;23;20334;-85
2023/03/11 04:46:27;;;;;;;0.10;0.10;;;-0.20;99.90;;;;;;6245586;23;20048;-81
2023/03/11 04:48:53;;;;;;;0.90;0.20;;;-0.70;99.90;;;;;;6245672;23;20020;-84
2023/03/11 04:51:24;;;;;;;1.25;0.20;;;-0.70;99.90;;;;;;6245763;23;20312;-85
2023/03/11 04:53:50;;;;;;;1.05;0.25;;;0.30;99.90;;;;;;6243557;23;20016;-84
2023/03/11 04:56:15;;;;;;;0.20;0.20;;;-0.70;99.90;;;;;;6243883;23;20066;-84
2023/03/11 04:58:41;;;;;;;0.28;0.17;;;-0.90;99.90;;;;;;6245550;23;20009;-84
2023/03/11 05:01:07;;;;;;;0.40;0.28;;;0.20;99.90;;;;;;6245839;23;20399;-84
2023/03/11 05:03:32;;;;;;;1.38;0.17;;;-1.00;99.90;;;;;;6245635;23;20019;-84
2023/03/11 05:06:00;;;;;;;4.45;1.00;;;-0.20;99.90;;;;;;6243569;23;20324;-83
2023/03/11 05:08:26;;;;;;;1.60;0.20;;;-1.20;99.90;;;;;;6243635;23;20099;-83
2023/03/11 05:10:52;;;;;;;0.20;0.20;;;0.10;99.90;;;;;;6245306;23;20051;-84
2023/03/11 05:13:19;;;;;;;1.48;0.20;;;-0.50;99.90;;;;;;6243470;23;20016;-84
2023/03/11 05:15:45;;;;;;;1.40;0.10;;;-1.30;99.90;;;;;;6245291;22;20051;-84
2023/03/11 05:18:11;;;;;;;2.90;0.30;;;-1.30;99.90;;;;;;6245507;23;20074;-83
2023/03/11 05:20:37;;;;;;;0.95;0.20;;;-0.50;99.90;;;;;;6245219;22;20016;-85
2023/03/11 05:23:03;;;;;;;0.73;0.20;;;-0.70;99.90;;;;;;6243162;23;20012;-84
2023/03/11 05:25:29;;;;;;;0.30;0.20;;;-0.30;99.90;;;;;;6245433;22;20035;-84
2023/03/11 05:28:00;;;;;;;0.35;0.20;;;-1.50;99.90;;;;;;6243380;23;20070;-86
2023/03/11 05:30:26;;;;;;;0.10;0.10;;;-1.50;99.90;;;;;;6245180;22;20051;-85
2023/03/11 05:32:52;;;;;;;0.28;0.20;;;-1.50;99.90;;;;;;6243399;23;20021;-86
2023/03/11 05:35:17;;;;;;;0.20;0.20;;;-1.60;99.90;;;;;;6245195;23;20031;-84
2023/03/11 05:37:43;;;;;;;0.20;0.20;;;-1.20;99.90;;;;;;6245189;23;20016;-82
2023/03/11 05:40:11;;;;;;;0.40;0.20;;;-1.70;99.90;;;;;;6244726;23;20521;-86
2023/03/11 05:42:39;;;;;;;0.65;0.20;;;-1.70;99.90;;;;;;6245197;23;20019;-85
2023/03/11 05:45:04;;;;;;;0.55;0.20;;;-1.80;99.90;;;;;;6247193;22;20057;-84
2023/03/11 05:47:30;;;;;;;0.30;0.10;;;-1.80;99.90;;;;;;6247357;23;20016;-84
2023/03/11 05:49:56;;;;;;;1.85;0.68;;;-2.60;99.90;;;;;;6245185;23;20471;-84
2023/03/11 05:52:21;;;;;;;0.40;0.22;;;-1.90;99.90;;;;;;6246978;23;20423;-84
2023/03/11 05:54:51;;;;;;;1.50;0.20;;;-1.90;99.90;;;;;;6247212;22;20008;-81
2023/03/11 05:57:18;;;;;;;0.30;0.20;;;-1.90;99.90;;;;;;6247103;22;20374;-85
2023/03/11 05:59:44;;;;;;;0.20;0.20;;;-1.90;99.90;;;;;;6247262;22;20067;-84
2023/03/11 06:02:10;;;;;;;0.30;0.20;;;-1.90;99.90;;;;;;6246280;22;20020;-85
2023/03/11 06:04:35;;;;;;;0.25;0.17;;;-1.90;99.90;;;;;;6247000;22;20320;-85
2023/03/11 06:07:01;;;;;;;0.20;0.20;;;-1.90;99.90;;;;;;6246849;23;20079;-84
2023/03/11 06:09:27;;;;;;;2.30;0.20;;;-2.00;99.90;;;;;;6246453;23;20039;-83
2023/03/11 06:11:53;;;;;;;0.32;0.20;;;-2.00;99.90;;;;;;6244628;23;20016;-84
2023/03/11 06:14:18;;;;;;;0.30;0.20;;;-1.90;99.90;;;;;;6246875;23;20455;-82
2023/03/11 06:16:44;;;;;;;0.63;0.20;;;-2.00;99.90;;;;;;6245237;23;20016;-85
2023/03/11 06:19:11;;;;;;;0.98;0.30;;;-2.00;99.90;;;;;;6246384;22;20066;-84
2023/03/11 06:21:37;;;;;;;0.93;0.20;;;-2.00;99.90;;;;;;6220074;23;20316;-84
2023/03/11 06:24:03;;;;;;;0.38;0.30;;;-2.00;99.90;;;;;;6244942;23;20081;-84
2023/03/11 06:26:29;;;;;;;0.22;0.20;;;-2.00;99.90;;;;;;6246998;22;20039;-84
2023/03/11 06:28:55;;;;;;;0.43;0.15;;;-2.00;99.90;;;;;;6244972;23;20455;-84
2023/03/11 06:31:27;;;;;;;2.42;0.22;;;-1.90;99.90;;;;;;6246028;22;20012;-83
2023/03/11 06:33:58;;;;;;;0.50;0.20;;;-2.00;99.90;;;;;;6246965;22;20019;-84
2023/03/11 06:36:23;;;;;;;0.60;0.20;;;-2.70;99.90;;;;;;6245204;23;20020;-84
2023/03/11 06:38:53;;;;;;;0.47;0.20;;;-2.00;99.90;;;;;;6246249;22;20016;-85
2023/03/11 06:41:19;;;;;;;0.45;0.35;;;-2.00;99.90;;;;;;6246426;23;20012;-84
2023/03/11 06:43:45;;;;;;;0.68;0.20;;;-1.90;99.90;;;;;;6246262;22;20012;-85
2023/03/11 06:46:13;;;;;;;0.20;0.17;;;-1.90;99.90;;;;;;6244588;23;20016;-82
2023/03/11 06:48:39;;;;;;;0.40;0.15;;;-1.90;99.90;;;;;;6245995;22;20095;-82
2023/03/11 06:51:05;;;;;;;0.50;0.30;;;-1.90;99.90;;;;;;6244705;23;20044;-81
2023/03/11 06:53:31;;;;;;;0.40;0.20;;;-1.90;99.90;;;;;;6245608;23;20062;-84
2023/03/11 06:56:00;;;;;;;6.20;1.05;;;-1.80;99.90;;;;;;6246475;22;20057;-83
2023/03/11 06:58:26;;;;;;;1.00;0.20;;;-1.80;99.90;;;;;;6244294;23;20012;-84
2023/03/11 07:00:52;;;;;;;1.05;0.35;;;-1.80;99.90;;;;;;6246133;23;20085;-84
2023/03/11 07:03:17;;;;;;;1.02;0.50;;;-1.80;99.90;;;;;;6244227;23;20023;-81
2023/03/11 07:05:43;;;;;;;1.40;0.35;;;-1.70;99.90;;;;;;6246117;23;20430;-85
2023/03/11 07:08:09;;;;;;;0.57;0.30;;;-1.70;99.90;;;;;;6246261;22;20012;-84
2023/03/11 07:10:35;;;;;;;0.65;0.40;;;-1.50;99.90;;;;;;6245594;23;20016;-85
2023/03/11 07:13:01;;;;;;;0.73;0.52;;;-1.50;99.90;;;;;;6246187;22;20078;-84
2023/03/11 07:15:26;;;;;;;0.90;0.35;;;-1.40;99.90;;;;;;6244261;23;20074;-84
2023/03/11 07:17:52;;;;;;;2.20;0.40;;;-0.10;99.90;;;;;;6244513;23;20055;-84
2023/03/11 07:20:18;;;;;;;1.58;0.40;;;0.00;99.90;;;;;;6245923;23;20008;-81
2023/03/11 07:22:43;;;;;;;0.55;0.38;;;-1.20;99.90;;;;;;6244163;23;20019;-85
2023/03/11 07:25:09;;;;;;;1.20;0.57;;;-1.10;99.90;;;;;;6246118;23;20016;-85
2023/03/11 07:27:35;;;;;;;1.33;0.47;;;0.00;99.90;;;;;;6245756;23;20095;-83
2023/03/11 07:30:02;;;;;;;1.38;0.55;;;-1.00;99.90;;;;;;6246275;23;20439;-84
2023/03/11 07:32:27;;;;;;;2.05;0.55;;;-0.90;99.90;;;;;;6245825;22;20012;-83
2023/03/11 07:34:53;;;;;;;3.83;0.40;;;-0.80;99.90;;;;;;6246021;23;20455;-85
2023/03/11 07:37:19;;;;;;;1.48;0.40;;;-0.70;99.90;;;;;;6245869;23;20012;-84
2023/03/11 07:39:44;;;;;;;0.75;0.43;;;-0.70;99.90;;;;;;6245679;23;20023;-84
2023/03/11 07:42:10;;;;;;;0.57;0.25;;;-0.30;99.90;;;;;;6244121;23;20024;-84
2023/03/11 07:44:36;;;;;;;0.55;0.30;;;-0.50;99.90;;;;;;6245993;23;20086;-84
2023/03/11 07:47:04;;;;;;;1.63;0.30;;;0.10;99.90;;;;;;6244143;23;20024;-81
2023/03/11 07:49:31;;;;;;;0.65;0.30;;;-0.40;99.90;;;;;;6246012;23;20023;-83
2023/03/11 07:51:57;;;;;;;2.40;0.25;;;-0.30;99.90;;;;;;6246012;22;20390;-83
2023/03/11 07:54:22;;;;;;;0.60;0.30;;;-0.20;99.90;;;;;;6243864;23;20356;-84
2023/03/11 07:56:48;;;;;;;0.45;0.30;;;-0.10;99.90;;;;;;6245671;22;20024;-84
2023/03/11 07:59:14;;;;;;;1.13;0.30;;;0.00;99.90;;;;;;6244237;23;20012;-82
2023/03/11 08:01:40;;;;;;;1.65;0.30;;;0.10;99.90;;;;;;6245753;22;20050;-83
2023/03/11 08:04:10;;;;;;;1.10;0.43;;;0.20;99.90;;;;;;6243770;23;20016;-84
2023/03/11 08:06:36;;;;;;;1.65;0.30;;;0.20;99.90;;;;;;6244415;23;20023;-85
2023/03/11 08:09:05;;;;;;;0.30;0.30;;;0.30;99.90;;;;;;6245589;22;20008;-85
2023/03/11 08:11:31;;;;;;;1.08;0.40;;;0.40;99.90;;;;;;6245600;22;20016;-88
2023/03/11 08:13:57;;;;;;;1.75;0.32;;;1.00;99.90;;;;;;6243904;23;20098;-84
2023/03/11 08:16:24;;;;;;;0.73;0.30;;;1.00;99.90;;;;;;6246015;22;20023;-83
2023/03/11 08:18:56;;;;;;;1.30;0.20;;;1.50;99.90;;;;;;6243833;23;20012;-85
2023/03/11 08:21:24;;;;;;;0.43;0.28;;;0.90;99.90;;;;;;6245971;22;20062;-88
2023/03/11 08:23:51;;;;;;;0.55;0.20;;;0.60;99.90;;;;;;6245666;22;20024;-84
2023/03/11 08:26:20;;;;;;;3.55;0.82;;;2.20;99.90;;;;;;6244186;23;20024;-83
2023/03/11 08:28:46;;;;;;;1.33;0.50;;;2.20;99.90;;;;;;6245706;22;20338;-85
2023/03/11 08:31:25;;;;;;;0.85;0.30;;;1.00;99.90;;;;;;6243480;23;20058;-84
2023/03/11 08:33:53;;;;;;;0.30;0.30;;;1.10;99.90;;;;;;6244269;23;20104;-86
2023/03/11 08:36:19;;;;;;;0.82;0.30;;;0.70;99.90;;;;;;6244625;23;20344;-85
2023/03/11 08:38:45;;;;;;;0.93;0.40;;;1.70;99.90;;;;;;6245024;22;20499;-85
2023/03/11 08:41:11;;;;;;;0.75;0.40;;;1.20;99.90;;;;;;6245363;23;20016;-86
2023/03/11 08:43:37;;;;;;;0.60;0.30;;;1.40;99.90;;;;;;6245567;23;20035;-86
2023/03/11 08:46:05;;;;;;;0.80;0.20;;;0.70;99.90;;;;;;6243662;23;20012;-86
2023/03/11 08:48:32;;;;;;;0.70;0.40;;;1.60;99.90;;;;;;6243875;23;20078;-86
2023/03/11 08:50:58;;;;;;;2.78;0.28;;;1.60;99.90;;;;;;6243706;23;20027;-85
2023/03/11 08:53:24;;;;;;;2.72;0.40;;;2.60;99.90;;;;;;6245724;22;20016;-85
2023/03/11 08:55:51;;;;;;;1.38;0.40;;;1.80;99.90;;;;;;6243570;23;20012;-84
2023/03/11 08:58:18;;;;;;;3.22;0.40;;;1.80;99.90;;;;;;6243381;23;20050;-85
2023/03/11 09:00:44;;;;;;;0.70;0.35;;;1.90;99.90;;;;;;6246127;22;20312;-86
2023/03/11 09:03:10;;;;;;;0.52;0.30;;;2.00;99.90;;;;;;6243752;23;20020;-86
2023/03/11 09:05:35;;;;;;;3.45;0.30;;;2.00;99.90;;;;;;6243858;23;20059;-86
2023/03/11 09:08:02;;;;;;;1.48;0.30;;;1.50;99.90;;;;;;6245791;23;20023;-86
2023/03/11 09:10:28;;;;;;;1.92;0.40;;;2.70;99.90;;;;;;6243496;23;20058;-85
2023/03/11 09:12:53;;;;;;;0.40;0.30;;;1.30;99.90;;;;;;6244052;23;20071;-87
2023/03/11 09:15:20;;;;;;;0.35;0.30;;;3.90;99.90;;;;;;6245524;23;20105;-87
2023/03/11 09:17:45;;;;;;;0.90;0.40;;;2.50;99.90;;;;;;6247921;23;20078;-87
2023/03/11 09:20:12;;;;;;;1.63;0.43;;;3.70;99.90;;;;;;6247554;22;20004;-86
2023/03/11 09:22:38;;;;;;;2.28;0.40;;;2.70;99.90;;;;;;6247202;22;20016;-87
2023/03/11 09:25:04;;;;;;;1.30;0.40;;;3.30;99.90;;;;;;6247488;23;20091;-87
2023/03/11 09:27:30;;;;;;;0.50;0.40;;;2.90;99.90;;;;;;6245395;23;20062;-87
2023/03/11 09:29:55;;;;;;;1.13;0.70;;;3.20;99.90;;;;;;6245709;23;20020;-86
2023/03/11 09:32:21;;;;;;;1.45;0.50;;;4.30;99.90;;;;;;6245166;23;20028;-87
2023/03/11 09:34:47;;;;;;;1.00;0.50;;;3.50;99.90;;;;;;6245476;23;20024;-86
2023/03/11 09:37:13;;;;;;;0.73;0.30;;;4.00;99.90;;;;;;6247115;23;20062;-85
2023/03/11 09:39:38;;;;;;;1.05;0.40;;;3.10;99.90;;;;;;6245189;23;20070;-86
2023/03/11 09:42:16;;;;;;;1.33;0.40;;;2.40;99.90;;;;;;6247185;22;20378;-86
2023/03/11 09:45:10;;;;;;;0.63;0.40;;;3.30;99.90;;;;;;6245426;23;20020;-86
2023/03/11 09:48:15;;;;;;;1.20;0.40;;;3.40;99.90;;;;;;6245873;23;20008;-86
2023/03/11 09:50:52;;;;;;;1.17;0.43;;;3.50;99.90;;;;;;6247295;22;20095;-86
2023/03/11 09:53:36;;;;;;;1.58;0.63;;;4.50;99.90;;;;;;6247186;22;20374;-86
2023/03/11 09:56:06;;;;;;;2.45;0.43;;;3.80;99.90;;;;;;6247301;23;20012;-89
2023/03/11 09:58:43;;;;;;;4.70;0.77;;;3.80;99.90;;;;;;6247066;22;20339;-85
2023/03/11 10:01:27;;;;;;;1.15;0.50;;;4.90;99.90;;;;;;6245377;23;20061;-86
2023/03/11 10:04:03;;;;;;;1.77;0.50;;;4.00;99.90;;;;;;6246784;22;20020;-85
2023/03/11 10:06:29;;;;;;;0.90;0.30;;;3.90;99.90;;;;;;6246794;22;20113;-87
2023/03/11 10:09:20;;;;;;;2.25;0.70;;;4.10;99.90;;;;;;6245650;23;20048;-85
2023/03/11 10:11:54;;;;;;;2.33;0.50;;;4.30;99.90;;;;;;6246665;22;20031;-85
2023/03/11 10:14:30;;;;;;;2.83;0.60;;;4.40;99.90;;;;;;6247064;22;20446;-86
2023/03/11 10:17:25;;;;;;;1.20;0.40;;;4.50;99.90;;;;;;6244975;23;20024;-87
2023/03/11 10:19:57;;;;;;;2.17;0.50;;;4.50;99.90;;;;;;6245170;23;20023;-88
2023/03/11 10:22:32;;;;;;;1.10;0.60;;;4.60;99.90;;;;;;6246691;22;20012;-86
2023/03/11 10:25:43;;;;;;;4.20;0.57;;;4.70;99.90;;;;;;6245064;23;20094;-87
2023/03/11 10:28:17;;;;;;;1.65;0.50;;;4.80;99.90;;;;;;6183409;23;20017;-85
2023/03/11 10:30:50;;;;;;;5.63;0.50;;;4.90;99.90;;;;;;6182977;23;20021;-87
2023/03/11 10:33:33;;;;;;;0.70;0.40;;;6.10;99.90;;;;;;6183562;23;20025;-87
2023/03/11 10:36:04;;;;;;;1.00;0.40;;;5.20;99.90;;;;;;6183808;23;20020;-89
2023/03/11 10:38:34;;;;;;;2.67;0.40;;;5.20;99.90;;;;;;6183177;23;20419;-87
2023/03/11 10:41:05;;;;;;;1.42;0.40;;;5.80;99.90;;;;;;6158281;23;20020;-86
2023/03/11 10:43:37;;;;;;;1.00;0.40;;;5.30;99.90;;;;;;6183319;23;20117;-85
2023/03/11 10:46:10;;;;;;;3.20;0.40;;;5.10;99.90;;;;;;6158549;23;20013;-85
2023/03/11 10:48:36;;;;;;;5.85;0.50;;;6.20;99.90;;;;;;6158610;23;20139;-85
2023/03/11 10:51:16;;;;;;;1.90;0.52;;;5.50;99.90;;;;;;6157905;23;20464;-87
2023/03/11 10:53:50;;;;;;;0.82;0.45;;;5.60;99.90;;;;;;6158271;23;20021;-87
2023/03/11 10:56:37;;;;;;;0.77;0.40;;;5.70;99.90;;;;;;6183278;23;20356;-89
2023/03/11 10:59:31;;;;;;;1.45;0.40;;;5.90;99.90;;;;;;6183298;23;20032;-86
2023/03/11 11:02:27;;;;;;;1.00;0.40;;;6.10;99.90;;;;;;6070531;23;20062;-86
2023/03/11 11:05:14;;;;;;;0.90;0.30;;;6.20;99.90;;;;;;6106042;23;20026;-87
2023/03/11 11:07:40;;;;;;;1.48;0.40;;;6.40;99.90;;;;;;6099667;23;20021;-88
2023/03/11 11:10:24;;;;;;;2.05;0.30;;;6.80;99.90;;;;;;6099469;23;20022;-89
2023/03/11 11:13:12;;;;;;;1.20;0.30;;;6.40;99.90;;;;;;6099269;23;20537;-84
2023/03/11 11:15:40;;;;;;;1.60;0.32;;;6.10;99.90;;;;;;6099238;23;20010;-88
2023/03/11 11:18:35;;;;;;;1.35;0.30;;;7.30;99.90;;;;;;6123579;23;20033;-88
2023/03/11 11:21:08;;;;;;;1.35;0.40;;;6.60;99.90;;;;;;6099088;23;20028;-89
2023/03/11 11:23:42;;;;;;;2.22;0.30;;;6.60;99.90;;;;;;6099068;23;20105;-88
2023/03/11 11:26:18;;;;;;;3.13;0.30;;;6.60;99.90;;;;;;6098618;23;20018;-88
2023/03/11 11:28:44;;;;;;;1.17;0.40;;;7.30;99.90;;;;;;6099189;23;20061;-87
2023/03/11 11:31:43;;;;;;;0.77;0.28;;;6.70;99.90;;;;;;6098875;23;20429;-87
2023/03/11 11:34:31;;;;;;;1.65;0.50;;;6.80;99.90;;;;;;6098370;23;20022;-84
2023/03/11 11:37:00;;;;;;;0.93;0.40;;;6.80;99.90;;;;;;6123386;23;20398;-87
2023/03/11 11:39:29;;;;;;;1.65;0.30;;;6.90;99.90;;;;;;6210722;23;20023;-87
2023/03/11 11:41:55;;;;;;;0.63;0.40;;;6.90;99.90;;;;;;6244131;23;20100;-88
2023/03/11 11:44:32;;;;;;;0.50;0.40;;;7.20;99.90;;;;;;6243966;23;20051;-85
2023/03/11 11:47:21;;;;;;;0.25;0.20;;;7.00;99.90;;;;;;6244068;23;20371;-87
2023/03/11 11:50:00;;;;;;;1.55;0.47;;;7.20;99.90;;;;;;6243568;23;20039;-87
2023/03/11 11:52:50;;;;;;;3.08;0.40;;;7.50;99.90;;;;;;6244257;23;20454;-86
2023/03/11 11:55:25;;;;;;;1.35;0.40;;;7.30;99.90;;;;;;6245929;22;20087;-85
2023/03/11 11:57:51;;;;;;;0.95;0.30;;;7.10;99.90;;;;;;6244452;23;20031;-88
2023/03/11 12:00:24;;;;;;;0.65;0.32;;;7.30;99.90;;;;;;6246137;23;20016;-87
2023/03/11 12:02:59;;;;;;;0.70;0.30;;;7.30;99.90;;;;;;6244644;23;20386;-90
2023/03/11 12:05:33;;;;;;;1.65;0.30;;;7.30;99.90;;;;;;6243862;23;20063;-86
2023/03/11 12:08:17;;;;;;;1.45;0.40;;;6.90;99.90;;;;;;6245625;22;20020;-92
2023/03/11 12:10:56;;;;;;;1.52;0.40;;;7.50;99.90;;;;;;6245655;23;20027;-86
2023/03/11 12:13:40;;;;;;;0.65;0.40;;;7.50;99.90;;;;;;6244910;23;20415;-87
2023/03/11 12:16:31;;;;;;;1.05;0.38;;;7.60;99.90;;;;;;6244065;23;20063;-86
2023/03/11 12:19:04;;;;;;;1.65;0.40;;;7.60;99.90;;;;;;6245368;22;20016;-87
2023/03/11 12:21:49;;;;;;;2.03;0.50;;;7.50;99.90;;;;;;6245675;22;20024;-87
2023/03/11 12:24:48;;;;;;;3.83;0.40;;;7.70;99.90;;;;;;6243800;23;20063;-87
2023/03/11 12:27:25;;;;;;;1.48;0.30;;;7.80;99.90;;;;;;6243926;23;20012;-87
2023/03/11 12:30:18;;;;;;;3.92;0.28;;;7.70;99.90;;;;;;6243657;23;20020;-88
2023/03/11 12:32:52;;;;;;;0.43;0.30;;;8.10;99.90;;;;;;6245634;23;20024;-87
2023/03/11 12:35:32;;;;;;;2.38;0.25;;;8.10;99.90;;;;;;6244036;23;20043;-87
2023/03/11 12:38:22;;;;;;;1.42;0.40;;;8.20;99.90;;;;;;6243848;23;20062;-88
2023/03/11 12:41:06;;;;;;;0.20;0.20;;;8.60;99.90;;;;;;6217843;23;20572;-87
2023/03/11 12:43:34;;;;;;;1.15;0.52;;;8.00;99.90;;;;;;6245365;22;20016;-87
2023/03/11 12:46:07;;;;;;;2.42;0.20;;;8.50;99.90;;;;;;6245336;23;20055;-84
2023/03/11 12:49:05;;;;;;;1.65;0.50;;;8.60;99.90;;;;;;6245474;22;20028;-86
2023/03/11 12:51:38;;;;;;;1.40;0.30;;;8.80;99.90;;;;;;6245041;23;20061;-91
2023/03/11 12:54:29;;;;;;;2.08;0.20;;;8.40;99.90;;;;;;6247201;22;20020;-86
2023/03/11 12:57:15;;;;;;;3.63;0.85;;;8.70;99.90;;;;;;6247531;22;20008;-92
2023/03/11 13:00:00;;;;;;;2.63;0.47;;;8.60;99.90;;;;;;6247290;23;20027;-85
2023/03/11 13:02:52;;;;;;;1.83;0.20;;;8.60;99.90;;;;;;6247687;23;20016;-87
2023/03/11 13:05:36;;;;;;;1.75;0.40;;;8.70;99.90;;;;;;6247568;23;20070;-89
2023/03/11 13:08:18;;;;;;;2.30;0.32;;;8.80;99.90;;;;;;6220328;23;20332;-86
2023/03/11 13:10:54;;;;;;;1.98;0.20;;;8.80;99.90;;;;;;6247501;22;20016;-86